Weather reports worldwide

Advertisment
San Pietro Capofiume, Italy (16144): temperature & dewpoint: 29.03.2020 01:00:00 - 04.04.2020 01:00:00 (CEST)San Pietro Capofiume, Italy (16144): reduced air pressure: 29.03.2020 01:00:00 - 04.04.2020 01:00:00 (CEST)
Date & Time tt [°C] td [°C] ppp [hPa]
04.04.2020 01:00:00 - - -
04.04.2020 00:00:00 - - -
03.04.2020 23:00:00 5,4 0,6 1017,0
03.04.2020 22:00:00 6,3 0,8 1016,7
03.04.2020 21:00:00 8,5 0,7 1015,9
03.04.2020 20:00:00 11,7 -0,5 1015,2
03.04.2020 19:00:00 14,7 0,9 1015,0
03.04.2020 18:00:00 15,7 -0,1 1014,6
03.04.2020 17:00:00 15,9 -1,2 1014,5
03.04.2020 16:00:00 15,8 -0,9 1014,8
03.04.2020 15:00:00 15,5 -0,3 1014,9
03.04.2020 14:00:00 14,9 -0,4 1015,6
03.04.2020 13:00:00 14,0 -0,8 1015,9
03.04.2020 12:00:00 13,0 0,0 1015,9
03.04.2020 11:00:00 11,0 0,1 1015,9
03.04.2020 10:00:00 8,1 1,3 1015,6
03.04.2020 09:00:00 4,9 - -
03.04.2020 08:00:00 0,2 -1,4 1014,7
03.04.2020 07:00:00 -1,2 -2,9 1014,3
03.04.2020 06:00:00 -0,9 -2,8 1013,9
03.04.2020 05:00:00 -0,5 -2,9 1013,6
03.04.2020 04:00:00 -0,3 -2,8 1013,4
03.04.2020 03:00:00 0,7 -2,4 1013,4
03.04.2020 02:00:00 1,7 -2,1 1013,5
03.04.2020 01:00:00 2,6 -2,3 1013,6
03.04.2020 00:00:00 4,3 -2,6 1013,7
02.04.2020 23:00:00 5,4 -2,4 1013,6
02.04.2020 22:00:00 6,4 -1,7 -
02.04.2020 21:00:00 7,2 -1,7 1013,4
02.04.2020 20:00:00 9,8 -1,9 1012,8
02.04.2020 19:00:00 13,0 -2,9 1012,7
02.04.2020 18:00:00 14,0 -2,9 1013,0
02.04.2020 17:00:00 13,8 -2,6 1013,5
02.04.2020 16:00:00 13,8 -2,2 1014,1
02.04.2020 15:00:00 12,9 -3,0 1014,8
02.04.2020 14:00:00 12,5 -3,8 1015,7
02.04.2020 13:00:00 11,8 -3,6 1016,5
02.04.2020 12:00:00 10,7 -3,4 1016,9
02.04.2020 11:00:00 9,1 -3,1 1017,2
02.04.2020 10:00:00 6,1 -0,6 1017,4
02.04.2020 09:00:00 2,3 -1,7 1017,4
02.04.2020 08:00:00 -1,1 -3,8 1017,4
02.04.2020 07:00:00 -2,3 -5,0 1017,3
02.04.2020 06:00:00 -2,6 -4,9 1017,1
02.04.2020 05:00:00 -1,9 -4,6 1017,4
02.04.2020 04:00:00 -2,1 -4,6 1018,0
02.04.2020 03:00:00 -1,1 -3,9 1018,5
02.04.2020 02:00:00 0,4 -4,1 1019,0
02.04.2020 01:00:00 0,8 -4,0 1019,5
02.04.2020 00:00:00 1,2 -3,7 1019,7
01.04.2020 23:00:00 2,4 -4,1 1019,7
01.04.2020 22:00:00 2,6 -4,6 1019,8
01.04.2020 21:00:00 3,9 -5,8 1019,6
01.04.2020 20:00:00 6,2 -7,1 1019,4
01.04.2020 19:00:00 9,6 -5,5 1019,5
01.04.2020 18:00:00 10,4 -5,6 1019,5
01.04.2020 17:00:00 11,0 -5,9 1019,9
01.04.2020 16:00:00 11,0 -5,9 1020,5
01.04.2020 15:00:00 11,0 -5,5 1021,1
01.04.2020 14:00:00 10,6 -5,4 1021,8
01.04.2020 13:00:00 10,8 -4,8 1022,5
01.04.2020 12:00:00 10,6 -5,0 1023,0
01.04.2020 11:00:00 9,1 -4,1 1023,5
01.04.2020 10:00:00 7,4 -1,8 1023,8
01.04.2020 09:00:00 4,6 -2,3 1023,7
01.04.2020 08:00:00 1,6 -3,9 1023,8
01.04.2020 07:00:00 1,5 -4,6 1023,5
01.04.2020 06:00:00 2,1 -4,9 1023,4
01.04.2020 05:00:00 2,3 -4,9 1023,4
01.04.2020 04:00:00 3,0 -5,4 1023,6
01.04.2020 03:00:00 2,9 -5,5 1023,9
01.04.2020 02:00:00 3,4 -5,0 1024,3
01.04.2020 01:00:00 2,0 -4,3 1024,4
01.04.2020 00:00:00 1,6 -3,9 1024,2
31.03.2020 23:00:00 2,2 - 1023,9
31.03.2020 22:00:00 5,2 -4,9 1023,4
31.03.2020 21:00:00 5,7 - 1022,9
31.03.2020 20:00:00 6,5 -5,2 1022,2
31.03.2020 19:00:00 8,9 -5,4 1022,0
31.03.2020 18:00:00 10,1 -5,5 1021,4
31.03.2020 17:00:00 10,1 -5,5 1021,7
31.03.2020 16:00:00 10,1 -3,9 1022,0
31.03.2020 15:00:00 10,1 -3,9 1022,6
31.03.2020 14:00:00 9,9 -2,4 1022,9
31.03.2020 13:00:00 9,3 -2,0 1023,1
31.03.2020 12:00:00 7,9 -2,2 1023,4
31.03.2020 11:00:00 7,9 -1,4 1023,1
31.03.2020 10:00:00 7,7 0,0 1022,7
31.03.2020 09:00:00 6,2 -0,3 1022,2
31.03.2020 08:00:00 5,5 0,5 1021,9
31.03.2020 07:00:00 - - -
31.03.2020 06:00:00 - - -
31.03.2020 05:00:00 - - -
31.03.2020 04:00:00 5,1 2,8 1020,7
31.03.2020 03:00:00 4,9 2,9 1021,0
31.03.2020 02:00:00 5,0 2,9 1020,6
31.03.2020 01:00:00 5,4 3,2 1019,9
31.03.2020 00:00:00 6,0 3,8 1019,4
30.03.2020 23:00:00 6,8 4,3 1018,6
30.03.2020 22:00:00 8,7 2,9 1017,5
30.03.2020 21:00:00 9,4 2,5 1016,7
30.03.2020 20:00:00 10,0 2,4 1016,0
30.03.2020 19:00:00 10,9 3,0 1015,2
30.03.2020 18:00:00 12,4 3,3 1014,9
30.03.2020 17:00:00 13,3 3,4 1014,5
30.03.2020 16:00:00 14,0 3,2 1014,5
30.03.2020 15:00:00 15,7 3,8 1014,6
30.03.2020 14:00:00 15,7 5,0 1014,5
30.03.2020 13:00:00 16,0 6,4 1014,7
30.03.2020 12:00:00 15,0 7,3 1014,6
30.03.2020 11:00:00 14,6 9,0 1014,4
30.03.2020 10:00:00 11,5 8,0 1014,3
30.03.2020 09:00:00 8,6 6,9 1013,7
30.03.2020 08:00:00 7,2 5,7 1013,0
30.03.2020 07:00:00 6,2 4,5 1012,4
30.03.2020 06:00:00 6,5 4,8 1012,1
30.03.2020 05:00:00 4,8 3,1 1011,9
30.03.2020 04:00:00 5,4 - 1011,7
30.03.2020 03:00:00 7,1 4,1 1011,8
30.03.2020 02:00:00 8,3 4,7 1011,6
30.03.2020 01:00:00 8,7 4,5 1011,9
30.03.2020 00:00:00 8,7 3,7 1012,1
29.03.2020 23:00:00 10,1 4,0 1012,1
29.03.2020 22:00:00 11,3 3,6 1011,8
29.03.2020 21:00:00 12,6 3,3 1011,7
29.03.2020 20:00:00 14,2 3,3 1011,3
29.03.2020 19:00:00 17,0 3,3 1010,9
29.03.2020 18:00:00 19,0 2,8 1010,7
29.03.2020 17:00:00 20,3 3,9 1010,8
29.03.2020 16:00:00 20,2 3,4 1011,2
29.03.2020 15:00:00 20,0 4,1 1011,9
29.03.2020 14:00:00 19,5 4,0 1012,4
29.03.2020 13:00:00 18,4 4,9 1012,9
29.03.2020 12:00:00 16,8 5,4 1013,4
29.03.2020 11:00:00 14,8 6,4 1013,9
29.03.2020 10:00:00 10,7 6,1 1014,0
29.03.2020 09:00:00 7,0 5,0 1014,1
29.03.2020 08:00:00 4,2 2,9 1014,1
29.03.2020 07:00:00 3,3 1,8 1013,9
29.03.2020 06:00:00 3,9 2,4 1014,0
29.03.2020 05:00:00 4,3 2,6 1014,1
29.03.2020 04:00:00 4,5 2,8 1014,5
29.03.2020 03:00:00 4,5 2,7 1014,8
29.03.2020 02:00:00 4,5 2,7 1014,8
29.03.2020 01:00:00 - - -

tt = temperature
td = dewpoint
ppp = reduced air pressure

Next stations